Time;durP1;ratioP1;P1;durP2;ratioP2;P2;SDS_P1;SDS_P2;PMS_P1;PMS_P2;Temp;Humidity;BMP_temperature;BMP_pressure;BME280_temperature;BME280_humidity;BME280_pressure;Samples;Min_cycle;Max_cycle;Signal;HPM_P1;HPM_P2
2021/05/23 00:00:23;;;;;;;6.70;2.90;;;15.20;55.20;;;;;;5074488;28;20106;-39
2021/05/23 00:02:49;;;;;;;5.07;2.20;;;15.20;55.10;;;;;;5074655;28;20383;-39
2021/05/23 00:05:18;;;;;;;5.10;2.50;;;15.20;55.10;;;;;;5074524;28;20048;-39
2021/05/23 00:07:54;;;;;;;5.85;2.50;;;15.20;54.80;;;;;;5074672;28;20024;-39
2021/05/23 00:10:21;;;;;;;6.18;3.17;;;15.20;54.80;;;;;;5074963;28;20033;-39
2021/05/23 00:12:47;;;;;;;4.47;2.35;;;15.20;54.70;;;;;;5078021;28;20033;-39
2021/05/23 00:15:18;;;;;;;3.20;2.40;;;15.20;54.60;;;;;;5077781;28;20032;-39
2021/05/23 00:17:43;;;;;;;6.57;2.40;;;15.20;54.50;;;;;;5078000;28;20107;-39
2021/05/23 00:20:10;;;;;;;5.00;2.33;;;15.20;54.40;;;;;;5077683;28;20040;-39
2021/05/23 00:22:36;;;;;;;5.32;2.35;;;15.20;54.40;;;;;;5078019;28;20063;-39
2021/05/23 00:25:03;;;;;;;4.20;2.95;;;15.20;54.30;;;;;;5077865;28;20094;-39
2021/05/23 00:27:29;;;;;;;4.88;2.92;;;15.20;54.30;;;;;;5077659;28;20043;-39
2021/05/23 00:29:54;;;;;;;6.82;2.97;;;15.20;54.40;;;;;;5077445;28;20087;-39
2021/05/23 00:32:20;;;;;;;9.30;4.13;;;15.20;54.40;;;;;;5077978;28;20051;-40
2021/05/23 00:34:46;;;;;;;7.55;4.13;;;15.20;54.50;;;;;;5077627;28;20041;-39
2021/05/23 00:37:11;;;;;;;10.13;5.53;;;15.20;54.60;;;;;;5077627;28;20104;-39
2021/05/23 00:39:37;;;;;;;7.10;4.20;;;15.20;54.80;;;;;;5077184;28;20044;-39
2021/05/23 00:42:03;;;;;;;11.68;4.38;;;15.20;54.90;;;;;;5077419;28;20070;-39
2021/05/23 00:44:29;;;;;;;8.23;4.28;;;15.20;55.50;;;;;;5077449;28;20110;-39
2021/05/23 00:46:54;;;;;;;7.90;4.63;;;15.20;55.10;;;;;;5077208;28;20450;-39
2021/05/23 00:49:20;;;;;;;7.43;4.55;;;15.20;55.40;;;;;;5077174;28;20032;-39
2021/05/23 00:51:45;;;;;;;7.13;4.00;;;15.20;55.50;;;;;;5077307;28;20305;-39
2021/05/23 00:54:11;;;;;;;9.35;3.85;;;15.20;55.70;;;;;;5056361;28;609698;-39
2021/05/23 00:56:37;;;;;;;6.18;3.97;;;15.10;55.80;;;;;;5078582;28;20074;-39
2021/05/23 00:59:03;;;;;;;8.73;4.05;;;15.10;56.00;;;;;;5078206;28;20035;-39
2021/05/23 01:01:43;;;;;;;5.43;3.25;;;15.10;56.20;;;;;;5078559;28;20059;-39
2021/05/23 01:04:09;;;;;;;8.65;3.97;;;15.10;56.30;;;;;;5078090;28;20068;-39
2021/05/23 01:06:35;;;;;;;5.97;3.10;;;15.10;56.40;;;;;;5078227;28;20056;-41
2021/05/23 01:09:01;;;;;;;7.68;3.30;;;15.10;56.40;;;;;;5077859;28;20033;-39
2021/05/23 01:11:29;;;;;;;8.35;3.40;;;15.10;56.60;;;;;;5078103;28;20031;-39
2021/05/23 01:13:58;;;;;;;5.68;3.50;;;15.10;56.70;;;;;;5077848;28;20400;-39
2021/05/23 01:16:54;;;;;;;6.20;3.10;;;15.10;56.80;;;;;;5077852;28;20107;-39
2021/05/23 01:19:33;;;;;;;5.63;3.70;;;15.10;56.80;;;;;;5077627;28;20036;-39
2021/05/23 01:22:11;;;;;;;8.60;3.78;;;15.10;56.80;;;;;;5078036;28;20025;-39
2021/05/23 01:24:42;;;;;;;8.32;3.67;;;15.10;56.90;;;;;;5078097;28;20040;-39
2021/05/23 01:27:12;;;;;;;8.52;3.60;;;15.10;56.90;;;;;;5077903;28;20036;-39
2021/05/23 01:29:39;;;;;;;5.13;3.08;;;15.20;57.10;;;;;;5059896;28;20036;-39
2021/05/23 01:32:06;;;;;;;4.63;3.42;;;15.20;57.00;;;;;;5077889;28;20036;-39
2021/05/23 01:34:33;;;;;;;6.00;3.33;;;15.20;57.00;;;;;;5077551;28;20036;-39
2021/05/23 01:37:05;;;;;;;4.70;3.10;;;15.30;57.00;;;;;;5059545;28;20035;-39
2021/05/23 01:39:31;;;;;;;4.97;2.90;;;15.30;56.90;;;;;;5077139;28;20043;-39
2021/05/23 01:41:58;;;;;;;6.05;3.15;;;15.30;57.50;;;;;;5077611;28;20036;-39
2021/05/23 01:44:25;;;;;;;8.07;3.35;;;15.40;56.90;;;;;;5077573;28;20033;-39
2021/05/23 01:46:51;;;;;;;9.63;3.30;;;15.40;56.80;;;;;;5077343;28;20029;-39
2021/05/23 01:49:16;;;;;;;9.38;3.25;;;15.50;56.80;;;;;;5077264;28;20031;-39
2021/05/23 01:51:42;;;;;;;6.60;3.05;;;15.50;56.70;;;;;;5077398;28;20277;-39
2021/05/23 01:54:08;;;;;;;5.65;3.13;;;15.50;56.60;;;;;;5076817;28;20053;-39
2021/05/23 01:56:33;;;;;;;4.25;2.53;;;15.60;56.60;;;;;;5077479;28;20090;-39
2021/05/23 01:58:59;;;;;;;4.85;2.90;;;15.70;56.50;;;;;;5076901;28;20062;-39
2021/05/23 02:01:25;;;;;;;8.63;2.95;;;15.70;56.40;;;;;;5077066;28;20036;-39
2021/05/23 02:03:57;;;;;;;7.85;3.00;;;15.80;56.40;;;;;;5076790;28;20029;-39
2021/05/23 02:06:23;;;;;;;9.45;2.90;;;15.80;56.30;;;;;;5077155;28;20024;-39
2021/05/23 02:08:48;;;;;;;6.25;2.80;;;15.80;56.20;;;;;;5076988;28;20093;-39
2021/05/23 02:11:14;;;;;;;6.18;3.08;;;15.90;56.20;;;;;;5076860;28;20035;-39
2021/05/23 02:13:40;;;;;;;6.40;3.42;;;15.90;56.20;;;;;;5076817;28;20104;-39
2021/05/23 02:16:07;;;;;;;9.15;3.88;;;15.90;56.10;;;;;;5076518;28;20468;-39
2021/05/23 02:18:34;;;;;;;6.55;3.33;;;15.90;56.00;;;;;;5076831;28;20028;-39
2021/05/23 02:21:00;;;;;;;6.70;3.05;;;15.90;56.00;;;;;;5076600;28;20055;-39
2021/05/23 02:23:26;;;;;;;6.43;3.22;;;15.90;56.10;;;;;;5076421;28;20032;-39
2021/05/23 02:25:53;;;;;;;6.00;3.47;;;15.90;56.20;;;;;;5076864;28;20423;-39
2021/05/23 02:28:19;;;;;;;7.18;3.65;;;15.80;56.30;;;;;;5076924;28;20055;-39
2021/05/23 02:30:49;;;;;;;6.82;3.30;;;15.90;56.50;;;;;;5076616;28;20178;-39
2021/05/23 02:33:16;;;;;;;5.60;2.90;;;15.90;56.60;;;;;;5076023;28;20040;-39
2021/05/23 02:35:44;;;;;;;9.88;3.03;;;15.90;56.70;;;;;;5076227;28;20043;-39
2021/05/23 02:38:11;;;;;;;4.38;3.00;;;15.90;57.00;;;;;;5076397;28;20107;-39
2021/05/23 02:40:38;;;;;;;6.25;3.00;;;15.80;57.10;;;;;;5076279;28;20032;-39
2021/05/23 02:43:06;;;;;;;4.60;2.78;;;15.80;57.20;;;;;;5076531;28;20028;-39
2021/05/23 02:45:34;;;;;;;5.38;2.70;;;15.80;57.40;;;;;;5076155;28;20063;-39
2021/05/23 02:48:01;;;;;;;4.28;2.83;;;15.90;57.60;;;;;;5076525;28;20032;-39
2021/05/23 02:50:29;;;;;;;6.15;2.78;;;15.90;57.80;;;;;;5076452;28;20040;-39
2021/05/23 02:52:56;;;;;;;5.53;3.17;;;15.90;57.90;;;;;;5076005;28;20317;-39
2021/05/23 02:55:23;;;;;;;6.65;3.30;;;15.90;58.20;;;;;;5075911;28;20028;-39
2021/05/23 02:57:49;;;;;;;3.25;2.35;;;15.90;58.30;;;;;;5076220;28;20412;-39
2021/05/23 03:00:18;;;;;;;7.55;3.03;;;15.90;58.30;;;;;;5076168;28;20032;-40
2021/05/23 03:02:44;;;;;;;6.05;2.78;;;15.90;58.50;;;;;;5076250;28;20289;-39
2021/05/23 03:05:12;;;;;;;4.95;2.80;;;15.90;58.60;;;;;;5075883;28;20054;-39
2021/05/23 03:07:46;;;;;;;3.85;2.38;;;15.90;58.90;;;;;;5076176;28;20069;-39
2021/05/23 03:10:14;;;;;;;10.27;3.28;;;15.90;58.90;;;;;;5075983;28;20035;-39
2021/05/23 03:12:41;;;;;;;4.65;2.80;;;15.90;59.00;;;;;;5076088;28;20347;-39
2021/05/23 03:15:10;;;;;;;7.30;2.83;;;15.90;59.10;;;;;;5076012;28;20036;-39
2021/05/23 03:17:36;;;;;;;5.50;2.63;;;15.90;59.20;;;;;;5076338;28;20321;-39
2021/05/23 03:20:04;;;;;;;3.38;2.45;;;15.90;59.10;;;;;;5075514;28;20032;-39
2021/05/23 03:22:29;;;;;;;4.90;2.83;;;15.90;59.30;;;;;;5076237;28;20403;-39
2021/05/23 03:24:55;;;;;;;3.45;2.40;;;15.90;59.40;;;;;;5075669;28;20024;-39
2021/05/23 03:27:20;;;;;;;4.72;2.50;;;16.00;59.50;;;;;;5076085;28;20035;-39
2021/05/23 03:29:46;;;;;;;9.35;3.03;;;16.00;59.70;;;;;;5075773;28;20032;-39
2021/05/23 03:32:12;;;;;;;3.78;2.80;;;16.00;59.80;;;;;;5075804;28;20063;-39
2021/05/23 03:34:37;;;;;;;4.55;2.72;;;16.00;59.80;;;;;;5075624;28;20032;-39
2021/05/23 03:37:03;;;;;;;6.57;2.67;;;16.00;60.00;;;;;;5075847;28;20021;-39
2021/05/23 03:39:28;;;;;;;7.38;2.88;;;16.00;60.10;;;;;;5075416;28;20279;-39
2021/05/23 03:41:54;;;;;;;5.60;2.78;;;16.10;60.80;;;;;;5075824;28;20021;-39
2021/05/23 03:44:20;;;;;;;4.13;2.80;;;16.10;60.20;;;;;;5075500;28;20388;-39
2021/05/23 03:46:45;;;;;;;5.38;2.90;;;16.10;60.60;;;;;;5078843;28;20099;-39
2021/05/23 03:49:11;;;;;;;7.28;3.05;;;16.10;60.60;;;;;;5079759;28;20040;-39
2021/05/23 03:51:36;;;;;;;14.00;3.33;;;16.10;60.70;;;;;;5079706;28;20024;-39
2021/05/23 03:54:02;;;;;;;12.93;3.58;;;16.10;60.90;;;;;;5079167;28;20078;-39
2021/05/23 03:56:28;;;;;;;7.43;3.88;;;16.10;61.60;;;;;;5079582;28;20085;-39
2021/05/23 03:58:54;;;;;;;7.40;2.80;;;16.10;62.70;;;;;;5079129;28;20025;-39
2021/05/23 04:01:19;;;;;;;8.52;3.08;;;16.10;63.00;;;;;;5079655;28;20032;-39
2021/05/23 04:03:45;;;;;;;7.03;2.97;;;16.10;63.30;;;;;;5079253;28;20040;-39
2021/05/23 04:06:11;;;;;;;5.30;2.92;;;16.10;63.70;;;;;;5079439;28;20112;-38
2021/05/23 04:08:36;;;;;;;6.28;2.90;;;16.10;63.50;;;;;;5079361;28;20404;-39
2021/05/23 04:11:12;;;;;;;7.70;3.17;;;16.10;64.10;;;;;;5079095;28;20054;-38
2021/05/23 04:13:40;;;;;;;4.22;3.05;;;16.10;64.50;;;;;;5079184;28;20055;-38
2021/05/23 04:16:07;;;;;;;6.55;3.65;;;16.10;65.00;;;;;;5079163;28;20063;-38
2021/05/23 04:18:32;;;;;;;5.70;3.38;;;16.10;65.40;;;;;;5078632;28;20028;-38
2021/05/23 04:20:58;;;;;;;4.55;3.10;;;16.20;65.00;;;;;;5078800;28;20027;-39
2021/05/23 04:23:24;;;;;;;4.60;2.95;;;16.20;65.10;;;;;;5078754;28;20056;-39
2021/05/23 04:25:51;;;;;;;3.95;3.03;;;16.20;65.00;;;;;;5079138;28;20375;-39
2021/05/23 04:28:17;;;;;;;5.07;2.80;;;16.20;65.00;;;;;;5079107;28;20032;-38
2021/05/23 04:30:43;;;;;;;4.63;3.22;;;16.30;64.90;;;;;;5078544;28;20046;-38
2021/05/23 04:33:08;;;;;;;6.38;3.47;;;16.30;64.90;;;;;;5078909;28;20105;-38
2021/05/23 04:35:34;;;;;;;8.95;3.42;;;16.30;65.20;;;;;;5078656;28;20060;-39
2021/05/23 04:38:01;;;;;;;12.43;4.60;;;16.40;65.40;;;;;;5078804;28;20029;-38
2021/05/23 04:40:27;;;;;;;8.43;3.95;;;16.50;65.70;;;;;;5078404;28;20115;-39
2021/05/23 04:42:53;;;;;;;8.02;3.65;;;16.50;65.30;;;;;;5078273;28;20025;-38
2021/05/23 04:45:19;;;;;;;4.45;2.97;;;16.60;65.30;;;;;;5078363;28;20036;-38
2021/05/23 04:47:45;;;;;;;8.40;3.78;;;16.70;65.00;;;;;;5078571;28;20052;-38
2021/05/23 04:50:11;;;;;;;5.45;3.42;;;16.80;64.60;;;;;;5078436;28;20032;-38
2021/05/23 04:52:37;;;;;;;5.10;3.33;;;16.90;64.20;;;;;;5078455;28;20539;-38
2021/05/23 04:55:06;;;;;;;5.68;3.58;;;17.00;63.90;;;;;;5078349;28;20116;-39
2021/05/23 04:57:32;;;;;;;12.35;3.47;;;17.10;63.70;;;;;;5078017;28;20017;-38
2021/05/23 04:59:58;;;;;;;5.13;3.05;;;17.20;63.60;;;;;;5078156;28;20320;-38
2021/05/23 05:02:23;;;;;;;10.40;3.20;;;17.30;63.30;;;;;;5078424;28;20025;-38
2021/05/23 05:04:49;;;;;;;7.50;3.13;;;17.40;63.10;;;;;;5078189;28;20379;-38
2021/05/23 05:07:15;;;;;;;3.80;2.45;;;17.50;62.60;;;;;;5078249;28;20067;-38
2021/05/23 05:09:41;;;;;;;5.07;3.08;;;17.60;62.40;;;;;;5077833;28;20036;-38
2021/05/23 05:12:07;;;;;;;5.07;3.10;;;17.70;62.30;;;;;;5078225;28;20086;-38
2021/05/23 05:14:33;;;;;;;12.00;4.47;;;17.70;62.40;;;;;;5077646;28;20071;-38
2021/05/23 05:16:59;;;;;;;5.72;2.55;;;17.80;62.50;;;;;;5078032;28;20486;-39
2021/05/23 05:19:25;;;;;;;4.90;2.75;;;17.90;62.30;;;;;;5077486;28;20033;-38
2021/05/23 05:21:50;;;;;;;8.18;2.83;;;17.90;62.10;;;;;;5077792;28;20021;-39
2021/05/23 05:24:16;;;;;;;5.28;2.55;;;18.00;61.90;;;;;;5077520;28;20028;-38
2021/05/23 05:26:42;;;;;;;4.20;2.60;;;18.10;61.50;;;;;;5077660;28;20037;-39
2021/05/23 05:29:07;;;;;;;8.98;3.20;;;18.20;61.10;;;;;;5077679;28;20067;-39
2021/05/23 05:31:33;;;;;;;3.75;2.70;;;18.20;61.20;;;;;;5077603;28;20028;-39
2021/05/23 05:33:59;;;;;;;4.43;2.60;;;18.30;61.20;;;;;;5077181;28;20032;-38
2021/05/23 05:36:25;;;;;;;8.13;2.83;;;18.30;60.90;;;;;;5077774;28;20032;-38
2021/05/23 05:38:51;;;;;;;4.60;2.72;;;18.40;60.90;;;;;;5077366;28;20032;-39
2021/05/23 05:41:17;;;;;;;4.47;2.80;;;18.50;61.40;;;;;;5077568;28;20029;-39
2021/05/23 05:43:43;;;;;;;5.57;3.00;;;18.60;60.20;;;;;;5076978;28;20025;-39
2021/05/23 05:46:08;;;;;;;7.57;3.08;;;18.70;59.70;;;;;;5077096;28;20032;-38
2021/05/23 05:48:35;;;;;;;3.92;2.70;;;18.80;59.60;;;;;;5077074;28;20040;-39
2021/05/23 05:51:01;;;;;;;8.75;3.50;;;18.90;59.10;;;;;;5077022;28;20115;-38
2021/05/23 05:53:27;;;;;;;5.78;2.50;;;19.10;58.60;;;;;;5076737;28;20448;-39
2021/05/23 05:55:52;;;;;;;4.38;2.60;;;19.20;58.50;;;;;;5076830;28;20062;-38
2021/05/23 05:58:18;;;;;;;7.60;3.42;;;19.20;58.50;;;;;;5076563;28;20409;-39
2021/05/23 06:00:43;;;;;;;8.75;2.90;;;19.40;58.60;;;;;;5073174;28;20074;-38
2021/05/23 06:03:09;;;;;;;12.00;3.45;;;19.40;58.20;;;;;;5077147;28;20115;-39
2021/05/23 06:05:35;;;;;;;5.78;3.10;;;19.50;57.80;;;;;;5076572;28;20402;-38
2021/05/23 06:08:00;;;;;;;5.82;3.13;;;19.60;57.60;;;;;;5075656;28;20033;-39
2021/05/23 06:10:26;;;;;;;5.22;2.78;;;19.60;57.60;;;;;;5076216;28;20040;-38
2021/05/23 06:12:52;;;;;;;8.77;3.25;;;19.70;57.40;;;;;;5076745;28;20115;-38
2021/05/23 06:15:18;;;;;;;3.22;2.60;;;19.70;57.30;;;;;;5076192;28;20036;-39
2021/05/23 06:17:44;;;;;;;6.70;3.97;;;19.80;57.20;;;;;;5076557;28;20320;-39
2021/05/23 06:20:10;;;;;;;4.80;2.97;;;19.80;57.10;;;;;;5076126;28;20309;-38
2021/05/23 06:22:36;;;;;;;5.47;3.10;;;19.90;57.20;;;;;;5076618;28;20032;-38
2021/05/23 06:25:03;;;;;;;5.05;2.95;;;19.90;56.90;;;;;;5076063;28;20036;-38
2021/05/23 06:27:29;;;;;;;5.20;3.17;;;19.90;56.70;;;;;;5076417;28;20040;-39
2021/05/23 06:29:54;;;;;;;4.80;2.83;;;20.00;57.00;;;;;;5076030;28;20039;-39
2021/05/23 06:32:20;;;;;;;4.30;2.80;;;20.00;56.80;;;;;;5076260;28;20111;-38
2021/05/23 06:34:46;;;;;;;8.13;3.10;;;20.00;56.60;;;;;;5075745;28;20064;-39
2021/05/23 06:37:11;;;;;;;6.20;3.13;;;20.00;56.40;;;;;;5075730;28;20368;-38
2021/05/23 06:39:38;;;;;;;4.00;2.78;;;20.00;56.40;;;;;;5057834;28;20045;-38
2021/05/23 06:42:05;;;;;;;7.47;4.00;;;20.00;56.50;;;;;;5075865;28;20420;-39
2021/05/23 06:44:30;;;;;;;11.13;5.50;;;20.10;56.50;;;;;;5075626;28;20377;-39
2021/05/23 06:46:56;;;;;;;8.45;5.45;;;20.10;56.60;;;;;;5076353;28;20059;-38
2021/05/23 06:49:22;;;;;;;8.43;4.97;;;20.20;56.60;;;;;;5075910;28;20046;-39
2021/05/23 06:51:47;;;;;;;6.95;3.22;;;20.20;56.70;;;;;;5076101;28;20251;-39
2021/05/23 06:54:13;;;;;;;5.40;3.20;;;20.30;56.50;;;;;;5075617;28;20373;-38
2021/05/23 06:56:39;;;;;;;4.25;3.40;;;20.30;56.90;;;;;;5076077;28;20336;-38
2021/05/23 06:59:04;;;;;;;4.35;2.63;;;20.40;56.80;;;;;;5075539;28;20024;-39
2021/05/23 07:01:31;;;;;;;4.78;3.28;;;20.50;57.20;;;;;;5075741;28;20028;-38
2021/05/23 07:03:58;;;;;;;6.70;2.88;;;20.50;56.90;;;;;;5075214;28;20028;-38
2021/05/23 07:06:24;;;;;;;3.38;2.90;;;20.60;56.80;;;;;;5075676;28;20027;-38
2021/05/23 07:08:49;;;;;;;3.95;3.05;;;20.60;57.30;;;;;;5075440;28;20041;-38
2021/05/23 07:11:15;;;;;;;6.57;3.55;;;20.70;57.10;;;;;;5075306;28;20033;-38
2021/05/23 07:13:41;;;;;;;5.07;3.45;;;20.70;57.00;;;;;;5074732;28;20125;-39
2021/05/23 07:16:06;;;;;;;4.57;3.67;;;20.70;57.10;;;;;;5075670;28;20060;-38
2021/05/23 07:18:32;;;;;;;4.10;3.20;;;20.70;57.30;;;;;;5077320;28;20032;-38
2021/05/23 07:20:59;;;;;;;4.20;3.08;;;20.80;57.30;;;;;;5075409;28;20036;-39
2021/05/23 07:23:26;;;;;;;4.15;2.97;;;20.90;57.10;;;;;;5075261;28;20036;-39
2021/05/23 07:25:52;;;;;;;3.83;2.88;;;21.00;56.90;;;;;;5075675;28;20029;-39
2021/05/23 07:28:17;;;;;;;7.25;4.13;;;21.00;56.40;;;;;;5085929;28;20032;-39
2021/05/23 07:30:43;;;;;;;5.93;3.75;;;21.10;56.70;;;;;;5095658;28;20052;-39
2021/05/23 07:33:09;;;;;;;6.53;3.15;;;21.20;56.30;;;;;;5095936;28;20502;-39
2021/05/23 07:35:35;;;;;;;4.63;2.90;;;21.30;56.20;;;;;;5095683;28;20036;-39
2021/05/23 07:38:01;;;;;;;12.02;8.57;;;21.30;55.90;;;;;;5095488;28;20040;-39
2021/05/23 07:40:27;;;;;;;7.80;3.97;;;21.40;56.20;;;;;;5090749;28;20487;-39
2021/05/23 07:42:52;;;;;;;6.38;3.63;;;21.40;56.20;;;;;;5088189;28;20027;-39
2021/05/23 07:45:18;;;;;;;3.85;2.83;;;21.50;56.10;;;;;;5095595;28;20028;-39
2021/05/23 07:47:44;;;;;;;5.20;3.08;;;21.50;55.70;;;;;;5086933;28;20033;-40
2021/05/23 07:50:10;;;;;;;7.20;3.38;;;21.60;55.80;;;;;;5075581;28;20040;-39
2021/05/23 07:52:36;;;;;;;3.80;2.92;;;21.60;56.00;;;;;;5077402;28;20412;-39
2021/05/23 07:55:04;;;;;;;9.77;3.15;;;21.60;55.90;;;;;;5090786;28;20139;-40
2021/05/23 07:57:30;;;;;;;3.90;2.58;;;21.70;56.20;;;;;;5095547;28;20035;-39
2021/05/23 07:59:56;;;;;;;8.52;3.40;;;21.70;56.20;;;;;;5095371;28;20024;-39
2021/05/23 08:02:21;;;;;;;4.38;3.63;;;21.70;56.10;;;;;;5085352;28;20142;-39
2021/05/23 08:04:47;;;;;;;6.63;3.10;;;21.80;56.20;;;;;;5074837;28;20082;-39
2021/05/23 08:07:13;;;;;;;3.50;2.70;;;21.90;56.10;;;;;;5075103;28;20113;-39
2021/05/23 08:09:38;;;;;;;4.97;3.00;;;21.90;56.00;;;;;;5074674;28;20051;-39
2021/05/23 08:12:04;;;;;;;8.15;3.83;;;21.90;56.10;;;;;;5075226;28;20033;-39
2021/05/23 08:14:30;;;;;;;16.45;3.72;;;22.00;56.20;;;;;;5086389;28;20353;-39
2021/05/23 08:16:56;;;;;;;4.95;3.00;;;22.00;56.40;;;;;;5092950;28;20036;-39
2021/05/23 08:19:21;;;;;;;5.70;3.10;;;22.00;56.30;;;;;;5085915;28;20431;-39
2021/05/23 08:21:47;;;;;;;10.35;3.40;;;22.10;56.30;;;;;;5074873;28;20412;-39
2021/05/23 08:24:13;;;;;;;5.93;2.80;;;22.20;56.30;;;;;;5074352;28;20029;-39
2021/05/23 08:26:39;;;;;;;5.85;3.42;;;22.20;55.30;;;;;;5074771;28;20058;-40
2021/05/23 08:29:05;;;;;;;10.50;2.85;;;22.30;55.10;;;;;;5074681;28;20119;-39
2021/05/23 08:31:32;;;;;;;4.25;3.00;;;22.20;55.20;;;;;;5076063;28;20032;-39
2021/05/23 08:33:58;;;;;;;4.43;2.47;;;22.20;55.50;;;;;;5077787;28;20055;-39
2021/05/23 08:36:24;;;;;;;13.10;2.40;;;22.20;55.30;;;;;;5078386;28;20086;-39
2021/05/23 08:38:50;;;;;;;5.25;2.85;;;22.20;54.60;;;;;;5077678;28;20032;-39
2021/05/23 08:41:17;;;;;;;5.22;2.40;;;22.20;54.00;;;;;;5078335;28;20025;-39
2021/05/23 08:43:43;;;;;;;2.95;2.20;;;22.20;52.40;;;;;;5077797;28;20032;-39
2021/05/23 08:46:09;;;;;;;3.90;2.17;;;22.20;52.60;;;;;;5078179;28;20025;-39
2021/05/23 08:48:36;;;;;;;7.20;2.33;;;22.20;53.40;;;;;;5077950;28;20377;-39
2021/05/23 08:51:01;;;;;;;2.72;2.33;;;22.20;54.10;;;;;;5078138;28;20021;-39
2021/05/23 08:53:27;;;;;;;5.97;2.88;;;22.20;54.10;;;;;;5077704;28;20309;-39
2021/05/23 08:55:53;;;;;;;10.98;7.30;;;22.20;54.00;;;;;;5078013;28;20162;-39
2021/05/23 08:58:18;;;;;;;7.57;4.70;;;22.20;54.00;;;;;;5078230;28;20032;-39
2021/05/23 09:00:45;;;;;;;8.07;3.53;;;22.20;54.30;;;;;;5077775;28;20089;-39
2021/05/23 09:03:15;;;;;;;6.70;2.72;;;22.10;54.20;;;;;;5078345;28;20048;-40
2021/05/23 09:05:48;;;;;;;5.18;2.47;;;22.10;54.40;;;;;;5078243;28;20032;-39
2021/05/23 09:08:21;;;;;;;7.75;2.60;;;22.20;54.50;;;;;;5077634;28;20348;-39
2021/05/23 09:10:51;;;;;;;3.42;2.53;;;22.20;54.50;;;;;;5077985;28;20131;-40
2021/05/23 09:13:35;;;;;;;5.45;2.80;;;22.30;54.70;;;;;;5077325;28;20035;-40
2021/05/23 09:16:11;;;;;;;4.88;2.40;;;22.30;54.60;;;;;;5077068;28;20089;-39
2021/05/23 09:18:43;;;;;;;3.22;2.20;;;22.30;53.30;;;;;;5077780;28;20311;-43
2021/05/23 09:21:11;;;;;;;6.93;2.47;;;22.30;53.20;;;;;;5077634;28;20059;-40
2021/05/23 09:23:51;;;;;;;10.93;6.93;;;22.40;52.90;;;;;;5077351;28;20036;-39
2021/05/23 09:26:20;;;;;;;2.33;2.08;;;22.50;52.80;;;;;;5076396;28;20082;-42
2021/05/23 09:28:46;;;;;;;4.53;2.55;;;22.60;52.50;;;;;;5077246;28;20033;-40
2021/05/23 09:31:14;;;;;;;4.03;2.00;;;22.70;51.90;;;;;;5074041;28;20040;-40
2021/05/23 09:33:53;;;;;;;2.78;2.00;;;22.80;51.50;;;;;;5076376;28;20318;-39
2021/05/23 09:36:21;;;;;;;3.95;2.72;;;22.80;51.50;;;;;;5077133;28;20336;-39
2021/05/23 09:38:58;;;;;;;4.22;2.08;;;22.80;50.90;;;;;;5077093;28;20087;-39
2021/05/23 09:41:35;;;;;;;3.83;1.98;;;22.80;49.50;;;;;;5073047;28;20021;-39
2021/05/23 09:44:20;;;;;;;4.88;1.90;;;22.80;49.30;;;;;;5075102;28;20033;-39
2021/05/23 09:46:54;;;;;;;2.72;1.77;;;22.80;48.50;;;;;;5076596;28;20055;-39
2021/05/23 09:49:22;;;;;;;4.13;1.80;;;22.80;49.00;;;;;;5076799;28;20093;-39
2021/05/23 09:51:55;;;;;;;2.33;1.73;;;22.90;49.30;;;;;;5076338;28;20501;-40
2021/05/23 09:54:22;;;;;;;4.70;1.70;;;22.90;49.40;;;;;;5076014;28;20060;-40
2021/05/23 09:56:48;;;;;;;5.82;2.38;;;22.90;49.40;;;;;;5075860;28;20024;-39
2021/05/23 09:59:19;;;;;;;10.43;6.10;;;22.90;49.30;;;;;;5076089;28;20052;-40
2021/05/23 10:01:45;;;;;;;5.53;3.08;;;23.00;48.60;;;;;;5076064;28;20048;-40
2021/05/23 10:04:22;;;;;;;13.55;8.35;;;23.00;47.10;;;;;;5076307;28;20032;-39
2021/05/23 10:07:02;;;;;;;5.80;2.33;;;23.00;46.90;;;;;;5076067;28;20024;-39
2021/05/23 10:09:28;;;;;;;4.20;1.60;;;23.10;45.40;;;;;;5076443;28;20039;-39
2021/05/23 10:11:55;;;;;;;3.53;1.95;;;23.10;44.20;;;;;;5076301;28;20028;-39
2021/05/23 10:14:20;;;;;;;2.40;1.45;;;23.20;43.30;;;;;;5075700;28;20048;-39
2021/05/23 10:16:51;;;;;;;5.45;3.28;;;23.40;44.00;;;;;;5075753;28;20036;-39
2021/05/23 10:19:23;;;;;;;;;;;23.50;44.40;;;;;;5076608;28;20033;-40
2021/05/23 10:21:50;;;;;;;6.28;2.00;;;23.60;45.10;;;;;;5075856;28;20357;-39
2021/05/23 10:24:36;;;;;;;13.65;1.92;;;23.70;42.90;;;;;;5058375;28;20262;-39
2021/05/23 10:27:12;;;;;;;3.85;1.75;;;23.80;41.10;;;;;;5076129;28;20158;-39
2021/05/23 10:29:42;;;;;;;2.92;1.42;;;23.90;41.30;;;;;;5076221;28;20033;-39
2021/05/23 10:32:10;;;;;;;7.28;3.55;;;24.00;41.30;;;;;;5076230;28;20397;-40
2021/05/23 10:34:42;;;;;;;7.57;1.70;;;24.10;41.80;;;;;;5075725;28;20028;-40
2021/05/23 10:37:11;;;;;;;8.48;2.10;;;24.10;41.60;;;;;;5076493;28;20320;-40
2021/05/23 10:39:42;;;;;;;1.50;1.17;;;24.10;41.50;;;;;;5075619;28;20033;-40
2021/05/23 10:42:12;;;;;;;1.75;1.55;;;24.20;39.90;;;;;;5058033;28;20021;-39
2021/05/23 10:44:46;;;;;;;3.65;2.38;;;24.20;39.80;;;;;;5084116;28;20031;-40
2021/05/23 10:47:23;;;;;;;3.83;2.10;;;24.30;39.90;;;;;;5076239;28;20029;-40
2021/05/23 10:50:00;;;;;;;5.18;2.30;;;24.30;40.40;;;;;;5089779;28;20347;-40
2021/05/23 10:52:28;;;;;;;5.60;1.90;;;24.40;41.10;;;;;;5095659;28;20346;-39
2021/05/23 10:55:00;;;;;;;2.83;1.55;;;24.60;40.90;;;;;;5095190;28;20028;-39
2021/05/23 10:57:27;;;;;;;4.45;2.55;;;24.70;40.40;;;;;;5096446;28;20035;-40
2021/05/23 11:00:00;;;;;;;5.90;1.60;;;24.80;39.10;;;;;;5096146;28;20212;-40
2021/05/23 11:02:40;;;;;;;2.33;1.90;;;25.00;38.20;;;;;;5096313;28;20060;-40
2021/05/23 11:05:13;;;;;;;2.85;1.80;;;25.00;38.40;;;;;;5083525;28;20083;-40
2021/05/23 11:07:39;;;;;;;3.55;1.60;;;25.00;37.90;;;;;;5076159;28;20546;-39
2021/05/23 11:10:19;;;;;;;6.13;2.15;;;25.00;37.40;;;;;;5075951;28;20296;-40
2021/05/23 11:12:52;;;;;;;3.95;1.80;;;25.10;38.00;;;;;;5082430;28;20056;-39
2021/05/23 11:15:18;;;;;;;3.00;2.00;;;25.20;38.90;;;;;;5077168;28;20036;-40
2021/05/23 11:17:44;;;;;;;6.75;4.60;;;25.20;39.00;;;;;;5075762;28;20027;-40
2021/05/23 11:20:18;;;;;;;15.60;1.80;;;25.30;38.90;;;;;;5075516;28;20316;-40
2021/05/23 11:22:46;;;;;;;1.02;0.93;;;25.30;38.10;;;;;;5074637;28;20028;-40
2021/05/23 11:25:19;;;;;;;3.75;1.98;;;25.30;38.00;;;;;;5075884;28;20037;-39
2021/05/23 11:28:04;;;;;;;3.90;1.60;;;25.20;38.10;;;;;;5075843;28;20427;-40
2021/05/23 11:30:33;;;;;;;3.70;1.73;;;25.20;38.40;;;;;;5075744;28;20041;-40
2021/05/23 11:33:10;;;;;;;3.60;1.23;;;25.20;38.50;;;;;;5074014;28;20064;-39
2021/05/23 11:35:38;;;;;;;2.50;1.42;;;25.20;37.70;;;;;;5075637;28;20037;-40
2021/05/23 11:38:05;;;;;;;4.50;0.77;;;25.20;38.10;;;;;;5075734;28;20033;-39
2021/05/23 11:40:38;;;;;;;2.67;1.33;;;25.30;37.40;;;;;;5075532;28;20130;-40
2021/05/23 11:43:10;;;;;;;1.25;1.00;;;25.40;36.90;;;;;;5075603;28;20025;-39
2021/05/23 11:45:37;;;;;;;1.45;1.30;;;25.60;36.60;;;;;;5075304;28;20025;-39
2021/05/23 11:48:07;;;;;;;8.63;1.50;;;25.70;37.00;;;;;;5072380;28;20339;-39
2021/05/23 11:50:34;;;;;;;2.65;1.35;;;25.90;37.30;;;;;;5074311;28;20028;-40
2021/05/23 11:53:00;;;;;;;1.90;1.70;;;26.20;37.30;;;;;;5076774;28;20048;-39
2021/05/23 11:55:30;;;;;;;2.30;1.50;;;26.50;37.10;;;;;;5082597;28;20068;-40
2021/05/23 11:58:07;;;;;;;2.67;1.23;;;26.70;36.60;;;;;;5076621;28;20404;-40
2021/05/23 12:00:34;;;;;;;1.83;1.08;;;26.90;35.80;;;;;;5095141;28;20158;-40
2021/05/23 12:03:00;;;;;;;3.60;1.35;;;27.00;36.10;;;;;;5094740;28;20308;-39
2021/05/23 12:05:45;;;;;;;7.00;1.35;;;27.20;35.80;;;;;;5095141;28;20374;-39
2021/05/23 12:08:21;;;;;;;2.83;1.10;;;27.30;34.80;;;;;;5098232;28;20414;-40
2021/05/23 12:11:04;;;;;;;4.53;1.77;;;27.50;35.20;;;;;;5098450;28;20028;-39
2021/05/23 12:13:36;;;;;;;4.32;2.00;;;27.60;35.10;;;;;;5096965;28;20032;-40
2021/05/23 12:16:03;;;;;;;4.97;1.90;;;27.60;34.50;;;;;;5096749;28;20059;-40
2021/05/23 12:18:45;;;;;;;3.40;1.83;;;27.70;34.10;;;;;;5096451;28;20043;-39
2021/05/23 12:21:16;;;;;;;5.40;3.10;;;27.80;33.80;;;;;;5096620;28;20028;-40
2021/05/23 12:23:44;;;;;;;7.68;3.30;;;27.90;33.80;;;;;;5096694;28;20119;-40
2021/05/23 12:26:15;;;;;;;3.38;1.77;;;28.00;33.40;;;;;;5097080;28;20058;-39
2021/05/23 12:28:44;;;;;;;3.33;1.00;;;28.10;33.30;;;;;;5098714;28;20035;-39
2021/05/23 12:31:11;;;;;;;1.50;1.10;;;28.10;32.70;;;;;;5098495;28;20032;-40
2021/05/23 12:33:38;;;;;;;5.20;1.20;;;28.20;33.10;;;;;;5098605;28;20028;-39
2021/05/23 12:36:11;;;;;;;8.50;4.47;;;28.30;32.90;;;;;;5098188;28;20035;-39
2021/05/23 12:38:38;;;;;;;7.40;3.63;;;28.40;32.30;;;;;;5098649;28;20028;-39
2021/05/23 12:41:05;;;;;;;3.03;1.75;;;28.60;32.70;;;;;;5098642;28;20058;-39
2021/05/23 12:43:34;;;;;;;4.97;2.55;;;28.70;31.40;;;;;;5098681;28;20077;-39
2021/05/23 12:46:02;;;;;;;5.50;2.92;;;28.90;31.70;;;;;;5098966;28;20440;-39
2021/05/23 12:48:45;;;;;;;18.15;11.13;;;29.00;31.40;;;;;;5098498;28;20031;-39